createdAt,value
2022-11-19T00:01:21.783Z,100472.41
2022-11-19T00:03:52.368Z,100483.31
2022-11-19T00:06:25.383Z,100496.78
2022-11-19T00:08:52.446Z,100486.75
2022-11-19T00:11:40.315Z,100475.66
2022-11-19T00:14:14.729Z,100481.75
2022-11-19T00:16:42.415Z,100478.34
2022-11-19T00:19:09.847Z,100480.19
2022-11-19T00:21:36.440Z,100484.75
2022-11-19T00:24:03.064Z,100487.56
2022-11-19T00:26:29.668Z,100486.47
2022-11-19T00:28:56.240Z,100484.16
2022-11-19T00:31:23.305Z,100481.38
2022-11-19T00:33:54.583Z,100489.25
2022-11-19T00:36:22.533Z,100487.66
2022-11-19T00:38:49.116Z,100486.81
2022-11-19T00:41:15.693Z,100492.00
2022-11-19T00:43:48.379Z,100491.97
2022-11-19T00:46:41.404Z,100497.09
2022-11-19T00:49:08.107Z,100501.47
2022-11-19T00:51:34.732Z,100500.19
2022-11-19T00:54:01.395Z,100507.59
2022-11-19T00:56:28.089Z,100497.22
2022-11-19T00:58:55.433Z,100501.56
2022-11-19T01:01:24.054Z,100504.69
2022-11-19T01:03:51.161Z,100509.88
2022-11-19T01:06:21.139Z,100511.78
2022-11-19T01:08:49.810Z,100517.00
2022-11-19T01:11:22.170Z,100520.59
2022-11-19T01:13:48.933Z,100518.91
2022-11-19T01:16:16.905Z,100515.44
2022-11-19T01:18:46.495Z,100509.69
2022-11-19T01:21:13.901Z,100509.56
2022-11-19T01:23:41.921Z,100513.72
2022-11-19T01:26:10.504Z,100516.41
2022-11-19T01:28:37.073Z,100506.03
2022-11-19T01:31:16.035Z,100510.47
2022-11-19T01:33:43.089Z,100517.00
2022-11-19T01:36:21.690Z,100522.25
2022-11-19T01:38:51.026Z,100521.72
2022-11-19T01:41:23.281Z,100513.88
2022-11-19T01:43:58.509Z,100520.31
2022-11-19T01:46:28.709Z,100528.25
2022-11-19T01:48:57.960Z,100529.13
2022-11-19T01:51:43.237Z,100526.66
2022-11-19T01:54:34.621Z,100536.78
2022-11-19T01:57:10.108Z,100528.03
2022-11-19T01:59:38.681Z,100534.75
2022-11-19T02:02:05.285Z,100535.56
2022-11-19T02:04:34.072Z,100532.22
2022-11-19T02:07:02.066Z,100527.09
2022-11-19T02:09:29.483Z,100530.44
2022-11-19T02:12:24.308Z,100526.13
2022-11-19T02:15:12.543Z,100528.53
2022-11-19T02:17:47.582Z,100528.69
2022-11-19T02:20:32.631Z,100532.25
2022-11-19T02:23:26.115Z,100522.09
2022-11-19T02:26:20.002Z,100523.63
2022-11-19T02:28:53.449Z,100521.81
2022-11-19T02:31:26.085Z,100531.34
2022-11-19T02:34:11.242Z,100527.91
2022-11-19T02:36:57.756Z,100527.81
2022-11-19T02:39:41.293Z,100533.28
2022-11-19T02:42:18.226Z,100536.66
2022-11-19T02:44:59.350Z,100542.25
2022-11-19T02:47:33.518Z,100538.66
2022-11-19T02:50:07.262Z,100542.13
2022-11-19T02:52:35.062Z,100545.34
2022-11-19T02:55:01.668Z,100551.34
2022-11-19T02:57:28.385Z,100544.94
2022-11-19T03:00:23.372Z,100549.75
2022-11-19T03:03:26.459Z,100547.00
2022-11-19T03:05:58.789Z,100549.00
2022-11-19T03:08:26.013Z,100548.97
2022-11-19T03:11:06.078Z,100559.44
2022-11-19T03:14:16.027Z,100560.56
2022-11-19T03:16:53.911Z,100567.75
2022-11-19T03:19:33.250Z,100564.75
2022-11-19T03:22:18.410Z,100567.78
2022-11-19T03:24:52.045Z,100560.44
2022-11-19T03:27:27.502Z,100557.97
2022-11-19T03:29:57.957Z,100575.38
2022-11-19T03:32:32.120Z,100574.69
2022-11-19T03:35:04.366Z,100568.03
2022-11-19T03:37:35.029Z,100573.84
2022-11-19T03:40:03.569Z,100577.22
2022-11-19T03:42:31.086Z,100567.88
2022-11-19T03:45:02.730Z,100571.84
2022-11-19T03:47:36.972Z,100570.19
2022-11-19T03:50:23.473Z,100575.19
2022-11-19T03:52:50.277Z,100582.03
2022-11-19T03:55:17.067Z,100586.63
2022-11-19T03:57:44.241Z,100593.69
2022-11-19T04:00:11.502Z,100595.63
2022-11-19T04:02:41.793Z,100603.13
2022-11-19T04:05:09.372Z,100602.41
2022-11-19T04:07:36.049Z,100597.94
2022-11-19T04:10:02.666Z,100598.25
2022-11-19T04:12:29.228Z,100596.06
2022-11-19T04:14:55.845Z,100585.22
2022-11-19T04:17:22.493Z,100588.47
2022-11-19T04:19:49.181Z,100588.38
2022-11-19T04:22:15.715Z,100588.53
2022-11-19T04:24:42.327Z,100592.97
2022-11-19T04:27:08.970Z,100578.50
2022-11-19T04:29:35.552Z,100581.75
2022-11-19T04:32:02.100Z,100574.09
2022-11-19T04:34:28.724Z,100581.63
2022-11-19T04:36:55.276Z,100575.31
2022-11-19T04:39:22.133Z,100584.31
2022-11-19T04:41:48.912Z,100578.69
2022-11-19T04:44:15.498Z,100568.88
2022-11-19T04:46:42.145Z,100567.47
2022-11-19T04:49:08.783Z,100565.72
2022-11-19T04:51:35.319Z,100562.81
2022-11-19T04:54:02.036Z,100565.81
2022-11-19T04:56:28.615Z,100555.19
2022-11-19T04:58:55.235Z,100552.72
2022-11-19T05:01:21.958Z,100553.53
2022-11-19T05:03:48.640Z,100561.13
2022-11-19T05:06:16.017Z,100569.94
2022-11-19T05:08:42.610Z,100575.41
2022-11-19T05:11:09.473Z,100590.25
2022-11-19T05:13:36.148Z,100581.84
2022-11-19T05:16:03.017Z,100594.25
2022-11-19T05:18:29.756Z,100592.34
2022-11-19T05:20:56.293Z,100594.03
2022-11-19T05:23:22.999Z,100596.25
2022-11-19T05:25:49.743Z,100584.66
2022-11-19T05:28:16.319Z,100589.22
2022-11-19T05:30:42.909Z,100589.19
2022-11-19T05:33:09.647Z,100577.38
2022-11-19T05:35:36.287Z,100584.13
2022-11-19T05:38:03.314Z,100594.53
2022-11-19T05:40:29.922Z,100588.38
2022-11-19T05:42:56.502Z,100589.25
2022-11-19T05:45:23.121Z,100592.81
2022-11-19T05:47:54.800Z,100596.44
2022-11-19T05:50:21.468Z,100595.53
2022-11-19T05:52:49.965Z,100593.22
2022-11-19T05:55:16.970Z,100597.00
2022-11-19T05:57:43.696Z,100597.72
2022-11-19T06:00:11.501Z,100593.66
2022-11-19T06:02:40.686Z,100602.13
2022-11-19T06:05:07.806Z,100602.94
2022-11-19T06:07:34.425Z,100594.94
2022-11-19T06:10:01.126Z,100594.81
2022-11-19T06:12:27.675Z,100601.84
2022-11-19T06:14:54.303Z,100607.25
2022-11-19T06:17:20.886Z,100601.69
2022-11-19T06:19:47.540Z,100606.56
2022-11-19T06:22:14.097Z,100605.16
2022-11-19T06:24:40.713Z,100586.09
2022-11-19T06:27:07.469Z,100594.88
2022-11-19T06:29:34.050Z,100598.47
2022-11-19T06:32:00.625Z,100593.56
2022-11-19T06:34:27.369Z,100604.31
2022-11-19T06:36:53.991Z,100607.09
2022-11-19T06:39:20.980Z,100612.53
2022-11-19T06:41:48.852Z,100610.91
2022-11-19T06:44:15.561Z,100622.88
2022-11-19T06:46:42.124Z,100603.50
2022-11-19T06:49:12.264Z,100617.09
2022-11-19T06:51:40.891Z,100617.50
2022-11-19T06:54:07.557Z,100623.53
2022-11-19T06:56:34.156Z,100623.34
2022-11-19T06:59:00.723Z,100624.31
2022-11-19T07:01:27.422Z,100637.69
2022-11-19T07:03:54.073Z,100631.91
2022-11-19T07:06:20.649Z,100632.56
2022-11-19T07:08:47.212Z,100642.47
2022-11-19T07:11:29.169Z,100645.31
2022-11-19T07:13:57.286Z,100647.03
2022-11-19T07:16:25.100Z,100643.06
2022-11-19T07:18:51.849Z,100642.44
2022-11-19T07:21:18.480Z,100632.09
2022-11-19T07:23:45.108Z,100642.25
2022-11-19T07:26:11.652Z,100640.81
2022-11-19T07:28:38.259Z,100635.75
2022-11-19T07:31:08.052Z,100639.50
2022-11-19T07:33:36.074Z,100638.53
2022-11-19T07:36:03.005Z,100645.34
2022-11-19T07:38:34.094Z,100647.91
2022-11-19T07:41:24.499Z,100649.38
2022-11-19T07:43:51.504Z,100652.22
2022-11-19T07:46:18.120Z,100655.50
2022-11-19T07:48:44.795Z,100658.91
2022-11-19T07:51:11.411Z,100658.66
2022-11-19T07:53:39.208Z,100648.75
2022-11-19T07:56:05.944Z,100663.28
2022-11-19T07:58:32.548Z,100656.69
2022-11-19T08:00:59.111Z,100656.88
2022-11-19T08:03:25.721Z,100656.91
2022-11-19T08:05:52.258Z,100657.31
2022-11-19T08:08:18.833Z,100657.50
2022-11-19T08:10:45.408Z,100651.81
2022-11-19T08:13:11.987Z,100643.69
2022-11-19T08:15:38.528Z,100647.84
2022-11-19T08:18:13.982Z,100640.06
2022-11-19T08:20:44.782Z,100636.88
2022-11-19T08:23:12.112Z,100629.94
2022-11-19T08:25:39.111Z,100628.28
2022-11-19T08:28:06.040Z,100635.03
2022-11-19T08:30:33.644Z,100636.88
2022-11-19T08:33:00.371Z,100623.19
2022-11-19T08:35:27.415Z,100621.78
2022-11-19T08:37:54.022Z,100620.00
2022-11-19T08:40:20.601Z,100622.97
2022-11-19T08:43:02.186Z,100617.00
2022-11-19T08:45:33.142Z,100627.22
2022-11-19T08:48:01.449Z,100618.78
2022-11-19T08:50:29.632Z,100620.63
2022-11-19T08:52:58.760Z,100615.53
2022-11-19T08:55:27.087Z,100613.66
2022-11-19T08:58:02.628Z,100611.31
2022-11-19T09:00:30.345Z,100610.09
2022-11-19T09:02:57.008Z,100608.50
2022-11-19T09:05:24.100Z,100606.88
2022-11-19T09:07:50.844Z,100607.84
2022-11-19T09:10:18.609Z,100607.94
2022-11-19T09:12:45.274Z,100606.97
2022-11-19T09:15:12.714Z,100604.44
2022-11-19T09:17:45.311Z,100610.53
2022-11-19T09:20:13.356Z,100604.56
2022-11-19T09:22:39.896Z,100602.03
2022-11-19T09:25:08.925Z,100612.38
2022-11-19T09:27:36.948Z,100611.59
2022-11-19T09:30:05.443Z,100608.09
2022-11-19T09:32:33.403Z,100605.44
2022-11-19T09:35:00.187Z,100605.50
2022-11-19T09:37:26.915Z,100600.38
2022-11-19T09:39:53.481Z,100595.13
2022-11-19T09:42:57.663Z,100593.16
2022-11-19T09:46:07.820Z,100603.66
2022-11-19T09:48:35.737Z,100619.03
2022-11-19T09:51:15.177Z,100615.16
2022-11-19T09:53:56.609Z,100608.06
2022-11-19T09:56:28.365Z,100609.66
2022-11-19T09:58:56.989Z,100611.97
2022-11-19T10:01:23.563Z,100621.69
2022-11-19T10:03:53.341Z,100621.44
2022-11-19T10:06:24.219Z,100617.63
2022-11-19T10:09:15.661Z,100621.53
2022-11-19T10:11:53.059Z,100634.28
2022-11-19T10:14:53.596Z,100622.34
2022-11-19T10:17:26.081Z,100618.38
2022-11-19T10:20:17.417Z,100614.72
2022-11-19T10:23:08.519Z,100612.78
2022-11-19T10:25:50.320Z,100613.56
2022-11-19T10:28:24.238Z,100606.38
2022-11-19T10:30:55.326Z,100601.88
2022-11-19T10:33:31.169Z,100592.19
2022-11-19T10:36:03.054Z,100588.03
2022-11-19T10:38:38.715Z,100589.28
2022-11-19T10:41:33.875Z,100585.47
2022-11-19T10:44:35.017Z,100588.78
2022-11-19T10:47:02.115Z,100574.09
2022-11-19T10:49:28.664Z,100560.75
2022-11-19T10:51:55.321Z,100555.94
2022-11-19T10:54:25.614Z,100562.66
2022-11-19T10:56:53.473Z,100562.41
2022-11-19T10:59:24.382Z,100557.84
2022-11-19T11:01:55.538Z,100558.13
2022-11-19T11:04:25.010Z,100560.13
2022-11-19T11:07:05.099Z,100548.06
2022-11-19T11:09:36.191Z,100551.25
2022-11-19T11:12:30.587Z,100549.78
2022-11-19T11:15:12.793Z,100543.78
2022-11-19T11:17:42.482Z,100538.13
2022-11-19T11:20:18.336Z,100540.28
2022-11-19T11:22:47.959Z,100529.72
2022-11-19T11:25:24.774Z,100530.19
2022-11-19T11:28:16.156Z,100517.19
2022-11-19T11:30:57.456Z,100522.34
2022-11-19T11:33:36.172Z,100515.59
2022-11-19T11:36:13.024Z,100508.03
2022-11-19T11:38:46.000Z,100514.81
2022-11-19T11:44:07.214Z,100508.22
2022-11-19T11:46:55.028Z,100496.56
2022-11-19T11:49:32.310Z,100494.56
2022-11-19T11:52:26.805Z,100497.75
2022-11-19T11:55:12.618Z,100493.31
2022-11-19T11:57:57.030Z,100496.75
2022-11-19T12:00:41.925Z,100498.81
2022-11-19T12:03:13.891Z,100493.72
2022-11-19T12:06:02.427Z,100499.16
2022-11-19T12:08:34.881Z,100495.47
2022-11-19T12:11:15.159Z,100491.84
2022-11-19T12:13:55.177Z,100488.25
2022-11-19T12:16:25.334Z,100490.19
2022-11-19T12:19:10.252Z,100490.00
2022-11-19T12:22:19.334Z,100482.00
2022-11-19T12:24:53.226Z,100478.97
2022-11-19T12:27:33.109Z,100481.09
2022-11-19T12:29:59.683Z,100480.28
2022-11-19T12:33:00.016Z,100479.66
2022-11-19T12:35:53.089Z,100482.50
2022-11-19T12:38:29.400Z,100484.59
2022-11-19T12:41:17.155Z,100483.91
2022-11-19T12:43:57.033Z,100487.63
2022-11-19T12:46:38.443Z,100484.56
2022-11-19T12:49:29.627Z,100489.88
2022-11-19T12:52:35.582Z,100489.56
2022-11-19T12:55:39.037Z,100488.66
2022-11-19T12:58:26.051Z,100496.06
2022-11-19T13:01:00.704Z,100492.38
2022-11-19T13:03:46.265Z,100476.25
2022-11-19T13:06:21.215Z,100487.50
2022-11-19T13:08:55.311Z,100487.25
2022-11-19T13:11:36.724Z,100487.75
2022-11-19T13:14:11.375Z,100488.94
2022-11-19T13:16:38.090Z,100483.91
2022-11-19T13:19:22.694Z,100489.16
2022-11-19T13:22:13.858Z,100490.84
2022-11-19T13:24:45.194Z,100487.41
2022-11-19T13:27:23.101Z,100492.88
2022-11-19T13:29:56.827Z,100478.50
2022-11-19T13:32:31.436Z,100473.19
2022-11-19T13:35:22.505Z,100468.38
2022-11-19T13:38:19.865Z,100470.50
2022-11-19T13:40:56.793Z,100461.78
2022-11-19T13:43:42.446Z,100457.13
2022-11-19T13:46:38.963Z,100451.75
2022-11-19T13:49:18.319Z,100460.63
2022-11-19T13:51:49.841Z,100457.75
2022-11-19T13:54:25.734Z,100458.81
2022-11-19T13:56:55.827Z,100454.50
2022-11-19T13:59:49.627Z,100460.56
2022-11-19T14:02:28.556Z,100461.56
2022-11-19T14:05:10.071Z,100458.66
2022-11-19T14:08:00.568Z,100463.22
2022-11-19T14:10:49.348Z,100458.25
2022-11-19T14:13:34.101Z,100459.59
2022-11-19T14:16:33.691Z,100461.81
2022-11-19T14:19:29.018Z,100469.63
2022-11-19T14:22:11.677Z,100467.53
2022-11-19T14:24:56.893Z,100466.44
2022-11-19T14:27:24.254Z,100478.19
2022-11-19T14:29:50.751Z,100469.38
2022-11-19T14:32:19.041Z,100462.81
2022-11-19T14:35:00.894Z,100470.00
2022-11-19T14:37:36.677Z,100477.34
2022-11-19T14:40:12.174Z,100477.28
2022-11-19T14:43:33.068Z,100478.28
2022-11-19T14:45:59.535Z,100470.31
2022-11-19T14:48:26.345Z,100465.72
2022-11-19T14:51:13.086Z,100465.53
2022-11-19T14:53:53.444Z,100466.63
2022-11-19T14:56:22.965Z,100469.41
2022-11-19T14:59:15.845Z,100457.81
2022-11-19T15:01:54.432Z,100454.63
2022-11-19T15:04:24.102Z,100458.19
2022-11-19T15:06:52.277Z,100459.09
2022-11-19T15:09:57.797Z,100452.94
2022-11-19T15:12:34.472Z,100442.69
2022-11-19T15:15:21.008Z,100445.41
2022-11-19T15:17:49.054Z,100449.97
2022-11-19T15:20:49.137Z,100446.31
2022-11-19T15:23:36.832Z,100448.22
2022-11-19T15:26:06.936Z,100440.56
2022-11-19T15:28:53.263Z,100447.31
2022-11-19T15:31:53.610Z,100441.31
2022-11-19T15:34:38.593Z,100436.22
2022-11-19T15:37:17.187Z,100425.06
2022-11-19T15:39:51.441Z,100425.88
2022-11-19T15:42:43.903Z,100430.09
2022-11-19T15:45:23.425Z,100431.03
2022-11-19T15:48:00.946Z,100431.19
2022-11-19T15:50:28.243Z,100427.69
2022-11-19T15:53:22.493Z,100427.81
2022-11-19T15:55:54.277Z,100424.34
2022-11-19T15:58:26.359Z,100429.44
2022-11-19T16:00:54.449Z,100434.81
2022-11-19T16:03:21.452Z,100418.19
2022-11-19T16:06:10.617Z,100423.44
2022-11-19T16:08:37.909Z,100423.56
2022-11-19T16:11:23.516Z,100431.47
2022-11-19T16:14:12.843Z,100431.53
2022-11-19T16:16:58.660Z,100425.53
2022-11-19T16:19:25.237Z,100427.25
2022-11-19T16:21:57.577Z,100424.69
2022-11-19T16:24:44.452Z,100423.78
2022-11-19T16:27:18.550Z,100433.34
2022-11-19T16:29:46.524Z,100420.28
2022-11-19T16:32:19.116Z,100419.44
2022-11-19T16:34:46.265Z,100424.75
2022-11-19T16:37:19.233Z,100418.53
2022-11-19T16:39:51.180Z,100420.34
2022-11-19T16:42:23.045Z,100417.69
2022-11-19T16:44:54.787Z,100411.69
2022-11-19T16:47:22.662Z,100416.06
2022-11-19T16:49:49.133Z,100416.91
2022-11-19T16:52:39.852Z,100416.00
2022-11-19T16:55:26.799Z,100410.75
2022-11-19T16:58:03.913Z,100404.75
2022-11-19T17:00:36.841Z,100402.16
2022-11-19T17:03:29.161Z,100409.19
2022-11-19T17:05:57.525Z,100407.47
2022-11-19T17:08:25.735Z,100405.75
2022-11-19T17:11:32.628Z,100408.19
2022-11-19T17:14:13.470Z,100413.50
2022-11-19T17:16:45.543Z,100404.84
2022-11-19T17:19:32.433Z,100416.09
2022-11-19T17:22:21.659Z,100407.41
2022-11-19T17:24:48.735Z,100404.09
2022-11-19T17:27:38.041Z,100408.38
2022-11-19T17:30:09.375Z,100402.44
2022-11-19T17:32:42.148Z,100411.16
2022-11-19T17:35:29.858Z,100404.28
2022-11-19T17:37:58.891Z,100412.97
2022-11-19T17:40:25.511Z,100415.59
2022-11-19T17:43:10.848Z,100405.09
2022-11-19T17:45:37.453Z,100408.56
2022-11-19T17:48:20.064Z,100416.38
2022-11-19T17:50:46.705Z,100416.41
2022-11-19T17:53:13.240Z,100423.38
2022-11-19T17:55:42.259Z,100420.78
2022-11-19T17:58:09.048Z,100423.47
2022-11-19T18:00:35.798Z,100426.03
2022-11-19T18:03:03.351Z,100428.66
2022-11-19T18:05:34.914Z,100421.72
2022-11-19T18:08:01.535Z,100416.50
2022-11-19T18:10:28.169Z,100423.44
2022-11-19T18:12:54.732Z,100420.81
2022-11-19T18:15:21.304Z,100418.19
2022-11-19T18:17:47.971Z,100418.19
2022-11-19T18:20:14.802Z,100420.75
2022-11-19T18:22:41.517Z,100426.88
2022-11-19T18:25:17.470Z,100416.34
2022-11-19T18:27:44.747Z,100424.28
2022-11-19T18:30:12.674Z,100420.72
2022-11-19T18:32:39.336Z,100419.88
2022-11-19T18:35:15.120Z,100415.63
2022-11-19T18:37:41.751Z,100407.81
2022-11-19T18:40:08.845Z,100418.19
2022-11-19T18:42:36.389Z,100407.84
2022-11-19T18:45:02.995Z,100404.38
2022-11-19T18:47:29.681Z,100406.97
2022-11-19T18:49:56.232Z,100404.38
2022-11-19T18:52:22.844Z,100418.25
2022-11-19T18:54:49.365Z,100422.63
2022-11-19T18:57:16.402Z,100423.44
2022-11-19T18:59:43.025Z,100421.69
2022-11-19T19:02:10.778Z,100434.69
2022-11-19T19:04:37.480Z,100425.09
2022-11-19T19:07:04.166Z,100410.34
2022-11-19T19:09:30.874Z,100407.66
2022-11-19T19:12:15.788Z,100414.53
2022-11-19T19:14:43.646Z,100411.16
2022-11-19T19:17:11.718Z,100403.31
2022-11-19T19:19:38.877Z,100411.91
2022-11-19T19:22:05.780Z,100404.00
2022-11-19T19:24:32.942Z,100398.97
2022-11-19T19:27:00.760Z,100405.81
2022-11-19T19:29:27.560Z,100409.38
2022-11-19T19:31:54.142Z,100406.00
2022-11-19T19:34:20.748Z,100412.91
2022-11-19T19:36:52.711Z,100412.91
2022-11-19T19:39:19.789Z,100419.09
2022-11-19T19:41:46.850Z,100427.75
2022-11-19T19:44:13.453Z,100420.72
2022-11-19T19:46:40.136Z,100426.03
2022-11-19T19:49:06.860Z,100427.78
2022-11-19T19:51:33.504Z,100425.16
2022-11-19T19:54:01.106Z,100427.81
2022-11-19T19:56:30.219Z,100424.34
2022-11-19T19:58:57.791Z,100426.06
2022-11-19T20:01:29.960Z,100432.09
2022-11-19T20:04:14.666Z,100433.84
2022-11-19T20:06:45.874Z,100432.13
2022-11-19T20:09:12.749Z,100426.94
2022-11-19T20:11:39.480Z,100430.38
2022-11-19T20:14:06.975Z,100434.72
2022-11-19T20:16:34.187Z,100438.19
2022-11-19T20:19:01.743Z,100429.53
2022-11-19T20:21:34.036Z,100433.81
2022-11-19T20:24:01.372Z,100439.94
2022-11-19T20:26:30.304Z,100435.53
2022-11-19T20:29:01.727Z,100432.06
2022-11-19T20:31:30.114Z,100438.19
2022-11-19T20:33:59.641Z,100442.53
2022-11-19T20:36:30.004Z,100431.25
2022-11-19T20:38:59.293Z,100439.97
2022-11-19T20:41:45.851Z,100435.66
2022-11-19T20:44:21.137Z,100439.97
2022-11-19T20:46:53.821Z,100435.63
2022-11-19T20:49:23.815Z,100439.13
2022-11-19T20:51:52.613Z,100440.84
2022-11-19T20:54:20.196Z,100434.78
2022-11-19T20:56:47.746Z,100433.91
2022-11-19T20:59:14.567Z,100428.72
2022-11-19T21:01:41.656Z,100430.44
2022-11-19T21:04:10.197Z,100429.56
2022-11-19T21:06:36.858Z,100437.41
2022-11-19T21:09:04.493Z,100437.38
2022-11-19T21:11:33.128Z,100430.44
2022-11-19T21:14:00.032Z,100433.88
2022-11-19T21:16:28.959Z,100423.47
2022-11-19T21:18:56.290Z,100431.31
2022-11-19T21:21:24.358Z,100423.50
2022-11-19T21:23:51.946Z,100417.41
2022-11-19T21:26:22.661Z,100421.72
2022-11-19T21:28:56.237Z,100406.16
2022-11-19T21:31:38.134Z,100420.03
2022-11-19T21:34:13.225Z,100410.50
2022-11-19T21:36:40.783Z,100407.91
2022-11-19T21:39:08.304Z,100400.97
2022-11-19T21:41:34.877Z,100399.19
2022-11-19T21:44:02.671Z,100404.41
2022-11-19T21:46:29.303Z,100398.34
2022-11-19T21:48:56.234Z,100388.84
2022-11-19T21:51:24.850Z,100395.75
2022-11-19T21:53:58.137Z,100386.22
2022-11-19T21:56:26.154Z,100387.97
2022-11-19T21:58:52.786Z,100388.84
2022-11-19T22:01:19.558Z,100378.41
2022-11-19T22:03:46.173Z,100376.66
2022-11-19T22:06:12.833Z,100376.72
2022-11-19T22:08:41.392Z,100375.81
2022-11-19T22:11:28.533Z,100368.06
2022-11-19T22:13:56.829Z,100372.34
2022-11-19T22:16:23.411Z,100369.78
2022-11-19T22:18:50.287Z,100368.03
2022-11-19T22:21:16.950Z,100360.19
2022-11-19T22:23:43.568Z,100366.31
2022-11-19T22:26:12.085Z,100359.25
2022-11-19T22:28:39.053Z,100362.81
2022-11-19T22:31:05.659Z,100368.03
2022-11-19T22:33:34.998Z,100362.81
2022-11-19T22:36:09.473Z,100360.22
2022-11-19T22:38:37.672Z,100362.81
2022-11-19T22:41:06.299Z,100357.59
2022-11-19T22:43:35.038Z,100364.59
2022-11-19T22:46:01.688Z,100361.13
2022-11-19T22:48:29.608Z,100368.06
2022-11-19T22:50:56.418Z,100362.00
2022-11-19T22:53:23.712Z,100372.41
2022-11-19T22:55:50.891Z,100371.50
2022-11-19T22:58:17.469Z,100371.53
2022-11-19T23:00:44.037Z,100373.25
2022-11-19T23:03:11.153Z,100379.31
2022-11-19T23:05:37.974Z,100376.72
2022-11-19T23:08:06.382Z,100376.72
2022-11-19T23:10:33.658Z,100376.72
2022-11-19T23:13:20.004Z,100379.34
2022-11-19T23:15:59.767Z,100376.72
2022-11-19T23:18:27.450Z,100375.88
2022-11-19T23:20:54.927Z,100371.50
2022-11-19T23:23:21.812Z,100373.25
2022-11-19T23:25:48.440Z,100368.94
2022-11-19T23:28:15.014Z,100371.50
2022-11-19T23:30:41.614Z,100367.19
2022-11-19T23:33:08.222Z,100369.75
2022-11-19T23:35:35.038Z,100366.31
2022-11-19T23:38:01.653Z,100368.91
2022-11-19T23:40:28.210Z,100360.22
2022-11-19T23:42:55.199Z,100364.59
2022-11-19T23:45:21.831Z,100362.84
2022-11-19T23:47:48.382Z,100361.09
2022-11-19T23:50:15.008Z,100362.81
2022-11-19T23:52:41.661Z,100364.59
2022-11-19T23:55:09.092Z,100357.63
2022-11-19T23:57:35.698Z,100360.19
